createdAt,value
2019-05-29T00:00:36.023Z,1006.14
2019-05-29T00:01:36.000Z,1006.14
2019-05-29T00:02:35.993Z,1006.20
2019-05-29T00:03:35.995Z,1006.22
2019-05-29T00:04:35.982Z,1006.18
2019-05-29T00:05:35.965Z,1006.19
2019-05-29T00:06:35.954Z,1006.23
2019-05-29T00:07:35.947Z,1006.20
2019-05-29T00:08:35.930Z,1006.25
2019-05-29T00:09:35.931Z,1006.18
2019-05-29T00:10:35.908Z,1006.24
2019-05-29T00:11:35.905Z,1006.24
2019-05-29T00:12:35.883Z,1006.25
2019-05-29T00:13:35.870Z,1006.27
2019-05-29T00:14:35.887Z,1006.26
2019-05-29T00:15:35.860Z,1006.24
2019-05-29T00:16:35.837Z,1006.30
2019-05-29T00:17:35.833Z,1006.33
2019-05-29T00:18:35.828Z,1006.37
2019-05-29T00:19:35.820Z,1006.33
2019-05-29T00:20:35.799Z,1006.36
2019-05-29T00:21:35.788Z,1006.34
2019-05-29T00:22:35.777Z,1006.31
2019-05-29T00:23:35.771Z,1006.39
2019-05-29T00:24:35.777Z,1006.40
2019-05-29T00:25:35.748Z,1006.42
2019-05-29T00:26:35.746Z,1006.43
2019-05-29T00:27:35.729Z,1006.40
2019-05-29T00:28:35.715Z,1006.40
2019-05-29T00:29:35.725Z,1006.44
2019-05-29T00:30:35.691Z,1006.41
2019-05-29T00:31:35.687Z,1006.41
2019-05-29T00:32:36.036Z,1006.42
2019-05-29T00:33:35.660Z,1006.45
2019-05-29T00:34:35.671Z,1006.45
2019-05-29T00:35:35.649Z,1006.42
2019-05-29T00:36:35.629Z,1006.41
2019-05-29T00:37:35.623Z,1006.47
2019-05-29T00:38:35.604Z,1006.44
2019-05-29T00:39:35.611Z,1006.51
2019-05-29T00:40:35.588Z,1006.43
2019-05-29T00:41:35.583Z,1006.45
2019-05-29T00:42:35.573Z,1006.44
2019-05-29T00:43:35.557Z,1006.45
2019-05-29T00:44:35.567Z,1006.45
2019-05-29T00:45:35.539Z,1006.42
2019-05-29T00:46:35.529Z,1006.41
2019-05-29T00:47:35.516Z,1006.46
2019-05-29T00:48:35.510Z,1006.49
2019-05-29T00:49:35.521Z,1006.41
2019-05-29T00:50:35.480Z,1006.45
2019-05-29T00:51:35.479Z,1006.51
2019-05-29T00:52:35.457Z,1006.46
2019-05-29T00:53:35.459Z,1006.51
2019-05-29T00:54:35.461Z,1006.45
2019-05-29T00:55:35.432Z,1006.49
2019-05-29T00:56:35.421Z,1006.49
2019-05-29T00:57:35.418Z,1006.53
2019-05-29T00:58:35.395Z,1006.50
2019-05-29T00:59:35.399Z,1006.51
2019-05-29T01:00:35.379Z,1006.55
2019-05-29T01:01:35.374Z,1006.60
2019-05-29T01:02:35.355Z,1006.66
2019-05-29T01:03:35.344Z,1006.61
2019-05-29T01:04:35.356Z,1006.68
2019-05-29T01:05:35.325Z,1006.68
2019-05-29T01:06:35.314Z,1006.70
2019-05-29T01:07:35.306Z,1006.71
2019-05-29T01:08:35.299Z,1006.68
2019-05-29T01:09:35.305Z,1006.71
2019-05-29T01:10:35.298Z,1006.73
2019-05-29T01:11:35.259Z,1006.67
2019-05-29T01:12:35.276Z,1006.70
2019-05-29T01:13:35.241Z,1006.70
2019-05-29T01:14:49.292Z,1006.76
2019-05-29T01:15:36.222Z,1006.81
2019-05-29T01:16:35.213Z,1006.81
2019-05-29T01:17:35.213Z,1006.83
2019-05-29T01:18:35.193Z,1006.86
2019-05-29T01:19:35.190Z,1006.88
2019-05-29T01:20:35.172Z,1006.89
2019-05-29T01:21:35.165Z,1006.86
2019-05-29T01:22:35.151Z,1006.87
2019-05-29T01:23:35.134Z,1006.93
2019-05-29T01:24:35.137Z,1006.90
2019-05-29T01:25:35.114Z,1006.93
2019-05-29T01:26:35.103Z,1006.90
2019-05-29T01:27:35.094Z,1006.90
2019-05-29T01:28:35.114Z,1006.92
2019-05-29T01:29:35.086Z,1006.86
2019-05-29T01:30:35.067Z,1006.93
2019-05-29T01:31:35.048Z,1006.97
2019-05-29T01:32:35.042Z,1006.89
2019-05-29T01:33:35.033Z,1007.00
2019-05-29T01:34:35.033Z,1007.03
2019-05-29T01:35:35.019Z,1007.07
2019-05-29T01:36:34.994Z,1007.10
2019-05-29T01:37:34.980Z,1007.08
2019-05-29T01:38:34.978Z,1007.12
2019-05-29T01:39:34.986Z,1007.13
2019-05-29T01:40:34.964Z,1007.14
2019-05-29T01:41:34.963Z,1007.17
2019-05-29T01:42:34.936Z,1007.25
2019-05-29T01:43:34.922Z,1007.25
2019-05-29T01:44:34.931Z,1007.28
2019-05-29T01:45:34.903Z,1007.29
2019-05-29T01:46:34.895Z,1007.32
2019-05-29T01:47:34.891Z,1007.28
2019-05-29T01:48:34.870Z,1007.31
2019-05-29T01:49:34.959Z,1007.32
2019-05-29T01:50:34.859Z,1007.35
2019-05-29T01:51:34.841Z,1007.30
2019-05-29T01:52:34.836Z,1007.40
2019-05-29T01:53:34.815Z,1007.33
2019-05-29T01:54:34.813Z,1007.36
2019-05-29T01:55:34.804Z,1007.39
2019-05-29T01:56:34.795Z,1007.39
2019-05-29T01:57:34.778Z,1007.38
2019-05-29T01:58:34.773Z,1007.43
2019-05-29T01:59:34.759Z,1007.43
2019-05-29T02:00:34.764Z,1007.42
2019-05-29T02:01:34.738Z,1007.45
2019-05-29T02:02:34.721Z,1007.51
2019-05-29T02:03:34.720Z,1007.47
2019-05-29T02:04:34.708Z,1007.52
2019-05-29T02:05:34.706Z,1007.50
2019-05-29T02:06:34.682Z,1007.51
2019-05-29T02:07:34.676Z,1007.52
2019-05-29T02:08:34.660Z,1007.55
2019-05-29T02:09:34.645Z,1007.56
2019-05-29T02:10:34.658Z,1007.55
2019-05-29T02:11:34.631Z,1007.50
2019-05-29T02:12:34.620Z,1007.54
2019-05-29T02:13:34.609Z,1007.50
2019-05-29T02:14:34.593Z,1007.54
2019-05-29T02:15:34.600Z,1007.56
2019-05-29T02:16:34.579Z,1007.56
2019-05-29T02:17:34.568Z,1007.59
2019-05-29T02:18:34.555Z,1007.59
2019-05-29T02:19:34.541Z,1007.58
2019-05-29T02:20:34.563Z,1007.60
2019-05-29T02:21:34.525Z,1007.61
2019-05-29T02:22:34.519Z,1007.60
2019-05-29T02:23:34.516Z,1007.65
2019-05-29T02:24:34.494Z,1007.73
2019-05-29T02:25:34.498Z,1007.71
2019-05-29T02:26:34.466Z,1007.73
2019-05-29T02:27:34.455Z,1007.74
2019-05-29T02:28:34.446Z,1007.75
2019-05-29T02:29:34.430Z,1007.70
2019-05-29T02:30:34.445Z,1007.71
2019-05-29T02:31:34.420Z,1007.78
2019-05-29T02:32:34.413Z,1007.81
2019-05-29T02:33:34.404Z,1007.72
2019-05-29T02:34:34.387Z,1007.77
2019-05-29T02:35:34.381Z,1007.77
2019-05-29T02:36:34.363Z,1007.76
2019-05-29T02:37:34.351Z,1007.80
2019-05-29T02:38:34.350Z,1007.77
2019-05-29T02:39:34.325Z,1007.76
2019-05-29T02:40:34.331Z,1007.79
2019-05-29T02:41:34.306Z,1007.82
2019-05-29T02:42:34.304Z,1007.84
2019-05-29T02:43:34.298Z,1007.87
2019-05-29T02:44:34.284Z,1007.82
2019-05-29T02:45:53.007Z,1007.80
2019-05-29T02:46:35.252Z,1007.84
2019-05-29T02:47:34.263Z,1007.90
2019-05-29T02:48:34.231Z,1007.92
2019-05-29T02:49:34.229Z,1007.88
2019-05-29T02:50:34.232Z,1007.84
2019-05-29T02:51:34.208Z,1007.93
2019-05-29T02:52:34.196Z,1007.97
2019-05-29T02:53:34.196Z,1007.96
2019-05-29T02:54:34.225Z,1007.91
2019-05-29T02:55:34.175Z,1007.93
2019-05-29T02:56:34.155Z,1007.98
2019-05-29T02:57:34.134Z,1007.91
2019-05-29T02:58:34.132Z,1007.93
2019-05-29T02:59:34.126Z,1008.02
2019-05-29T03:00:34.122Z,1008.00
2019-05-29T03:01:34.102Z,1008.03
2019-05-29T03:02:34.080Z,1008.03
2019-05-29T03:03:39.549Z,1008.12
2019-05-29T03:04:35.068Z,1008.10
2019-05-29T03:05:34.069Z,1008.09
2019-05-29T03:06:34.041Z,1008.06
2019-05-29T03:07:34.034Z,1008.15
2019-05-29T03:08:34.575Z,1008.15
2019-05-29T03:09:34.019Z,1008.26
2019-05-29T03:10:34.021Z,1008.23
2019-05-29T03:11:33.988Z,1008.21
2019-05-29T03:12:33.987Z,1008.29
2019-05-29T03:13:33.983Z,1008.28
2019-05-29T03:14:34.872Z,1008.27
2019-05-29T03:15:33.978Z,1008.33
2019-05-29T03:16:34.892Z,1008.35
2019-05-29T03:17:34.016Z,1008.36
2019-05-29T03:18:35.035Z,1008.39
2019-05-29T03:19:34.679Z,1008.40
2019-05-29T03:20:34.522Z,1008.46
2019-05-29T03:21:34.728Z,1008.46
2019-05-29T03:22:35.306Z,1008.47
2019-05-29T03:23:35.922Z,1008.51
2019-05-29T03:24:35.163Z,1008.50
2019-05-29T03:25:35.171Z,1008.53
2019-05-29T03:26:35.120Z,1008.51
2019-05-29T03:27:34.008Z,1008.61
2019-05-29T03:28:34.927Z,1008.63
2019-05-29T03:29:34.425Z,1008.62
2019-05-29T03:30:41.313Z,1008.59
2019-05-29T03:31:41.981Z,1008.61
2019-05-29T03:32:45.812Z,1008.67
2019-05-29T03:33:40.954Z,1008.64
2019-05-29T03:34:44.165Z,1008.69
2019-05-29T03:35:43.947Z,1008.72
2019-05-29T03:36:42.030Z,1008.73
2019-05-29T03:37:34.728Z,1008.74
2019-05-29T03:38:34.897Z,1008.75
2019-05-29T03:39:34.569Z,1008.82
2019-05-29T03:40:35.224Z,1008.71
2019-05-29T03:41:34.864Z,1008.80
2019-05-29T03:42:34.435Z,1008.86
2019-05-29T03:43:35.913Z,1008.92
2019-05-29T03:44:35.319Z,1008.94
2019-05-29T03:45:35.703Z,1009.02
2019-05-29T03:46:41.125Z,1008.98
2019-05-29T03:47:35.133Z,1009.05
2019-05-29T03:48:34.474Z,1009.03
2019-05-29T03:49:35.007Z,1009.09
2019-05-29T03:50:34.938Z,1009.10
2019-05-29T03:51:35.073Z,1009.08
2019-05-29T03:52:34.693Z,1009.12
2019-05-29T03:53:35.471Z,1009.20
2019-05-29T03:54:35.313Z,1009.16
2019-05-29T03:55:33.882Z,1009.22
2019-05-29T03:56:34.818Z,1009.25
2019-05-29T03:57:33.930Z,1009.19
2019-05-29T03:58:34.856Z,1009.26
2019-05-29T03:59:35.339Z,1009.30
2019-05-29T04:00:41.709Z,1009.28
2019-05-29T04:01:35.571Z,1009.24
2019-05-29T04:02:35.279Z,1009.29
2019-05-29T04:03:35.377Z,1009.29
2019-05-29T04:04:34.144Z,1009.34
2019-05-29T04:05:34.992Z,1009.36
2019-05-29T04:06:33.911Z,1009.37
2019-05-29T04:07:34.110Z,1009.36
2019-05-29T04:08:33.607Z,1009.43
2019-05-29T04:09:33.503Z,1009.41
2019-05-29T04:10:35.534Z,1009.47
2019-05-29T04:11:33.368Z,1009.44
2019-05-29T04:12:33.516Z,1009.49
2019-05-29T04:13:34.084Z,1009.48
2019-05-29T04:14:33.517Z,1009.53
2019-05-29T04:15:33.786Z,1009.45
2019-05-29T04:16:52.417Z,1009.48
2019-05-29T04:17:35.505Z,1009.52
2019-05-29T04:18:33.928Z,1009.51
2019-05-29T04:19:34.887Z,1009.57
2019-05-29T04:20:33.561Z,1009.55
2019-05-29T04:21:34.320Z,1009.49
2019-05-29T04:22:34.329Z,1009.60
2019-05-29T04:23:34.032Z,1009.55
2019-05-29T04:24:33.979Z,1009.63
2019-05-29T04:25:37.629Z,1009.61
2019-05-29T04:26:34.206Z,1009.65
2019-05-29T04:27:34.273Z,1009.60
2019-05-29T04:28:34.885Z,1009.65
2019-05-29T04:29:34.149Z,1009.62
2019-05-29T04:30:34.312Z,1009.71
2019-05-29T04:31:34.479Z,1009.64
2019-05-29T04:32:34.236Z,1009.70
2019-05-29T04:33:34.858Z,1009.73
2019-05-29T04:34:34.274Z,1009.67
2019-05-29T04:35:34.639Z,1009.73
2019-05-29T04:36:34.753Z,1009.80
2019-05-29T04:37:34.352Z,1009.79
2019-05-29T04:38:33.900Z,1009.81
2019-05-29T04:39:34.391Z,1009.87
2019-05-29T04:40:34.803Z,1009.79
2019-05-29T04:41:34.621Z,1009.85
2019-05-29T04:42:33.997Z,1009.87
2019-05-29T04:43:33.802Z,1009.87
2019-05-29T04:44:33.883Z,1009.92
2019-05-29T04:45:33.480Z,1009.86
2019-05-29T04:46:34.019Z,1009.83
2019-05-29T04:47:33.372Z,1009.82
2019-05-29T04:48:34.071Z,1009.85
2019-05-29T04:49:33.856Z,1009.91
2019-05-29T04:50:33.431Z,1009.91
2019-05-29T04:51:33.165Z,1009.93
2019-05-29T04:52:33.803Z,1009.97
2019-05-29T04:53:33.534Z,1009.94
2019-05-29T04:54:33.297Z,1009.98
2019-05-29T04:55:32.897Z,1010.02
2019-05-29T04:56:32.886Z,1009.96
2019-05-29T04:57:32.927Z,1009.95
2019-05-29T04:58:32.894Z,1009.94
2019-05-29T04:59:33.095Z,1010.00
2019-05-29T05:00:33.133Z,1010.01
2019-05-29T05:01:33.113Z,1010.07
2019-05-29T05:02:33.122Z,1010.08
2019-05-29T05:03:33.216Z,1010.11
2019-05-29T05:04:33.189Z,1010.07
2019-05-29T05:05:33.276Z,1010.07
2019-05-29T05:06:33.222Z,1010.09
2019-05-29T05:07:33.211Z,1010.19
2019-05-29T05:08:33.361Z,1010.22
2019-05-29T05:09:33.375Z,1010.19
2019-05-29T05:10:33.376Z,1010.23
2019-05-29T05:11:33.378Z,1010.18
2019-05-29T05:12:33.630Z,1010.29
2019-05-29T05:13:33.473Z,1010.30
2019-05-29T05:14:33.600Z,1010.24
2019-05-29T05:15:33.655Z,1010.30
2019-05-29T05:16:33.675Z,1010.29
2019-05-29T05:17:33.727Z,1010.35
2019-05-29T05:18:33.731Z,1010.37
2019-05-29T05:19:33.831Z,1010.39
2019-05-29T05:20:33.931Z,1010.36
2019-05-29T05:21:33.917Z,1010.39
2019-05-29T05:22:32.617Z,1010.41
2019-05-29T05:23:32.606Z,1010.45
2019-05-29T05:24:32.577Z,1010.40
2019-05-29T05:25:32.580Z,1010.45
2019-05-29T05:26:32.557Z,1010.50
2019-05-29T05:27:32.563Z,1010.45
2019-05-29T05:28:32.530Z,1010.50
2019-05-29T05:29:32.527Z,1010.54
2019-05-29T05:30:32.528Z,1010.54
2019-05-29T05:31:32.503Z,1010.44
2019-05-29T05:32:32.660Z,1010.50
2019-05-29T05:33:32.486Z,1010.55
2019-05-29T05:34:32.635Z,1010.59
2019-05-29T05:35:32.700Z,1010.54
2019-05-29T05:36:32.704Z,1010.66
2019-05-29T05:37:32.727Z,1010.60
2019-05-29T05:38:32.626Z,1010.65
2019-05-29T05:39:32.795Z,1010.62
2019-05-29T05:40:32.721Z,1010.65
2019-05-29T05:41:32.729Z,1010.65
2019-05-29T05:42:32.901Z,1010.74
2019-05-29T05:43:32.889Z,1010.70
2019-05-29T05:44:32.814Z,1010.70
2019-05-29T05:45:32.995Z,1010.76
2019-05-29T05:46:32.957Z,1010.70
2019-05-29T05:47:44.873Z,1010.73
2019-05-29T05:48:33.325Z,1010.71
2019-05-29T05:49:33.213Z,1010.78
2019-05-29T05:50:33.332Z,1010.82
2019-05-29T05:51:33.488Z,1010.85
2019-05-29T05:52:33.680Z,1010.87
2019-05-29T05:53:33.357Z,1010.84
2019-05-29T05:54:33.338Z,1010.93
2019-05-29T05:55:33.439Z,1010.91
2019-05-29T05:56:33.581Z,1011.04
2019-05-29T05:57:33.442Z,1010.90
2019-05-29T05:58:33.663Z,1010.93
2019-05-29T05:59:32.200Z,1010.99
2019-05-29T06:00:32.219Z,1010.96
2019-05-29T06:01:32.178Z,1011.02
2019-05-29T06:02:32.187Z,1011.06
2019-05-29T06:03:32.164Z,1011.04
2019-05-29T06:04:32.164Z,1011.08
2019-05-29T06:05:32.268Z,1011.08
2019-05-29T06:06:32.152Z,1011.10
2019-05-29T06:07:32.140Z,1011.16
2019-05-29T06:08:32.113Z,1011.12
2019-05-29T06:09:32.674Z,1011.21
2019-05-29T06:10:32.127Z,1011.22
2019-05-29T06:11:32.256Z,1011.25
2019-05-29T06:12:32.281Z,1011.28
2019-05-29T06:13:32.192Z,1011.24
2019-05-29T06:14:32.342Z,1011.28
2019-05-29T06:15:32.358Z,1011.30
2019-05-29T06:16:32.963Z,1011.22
2019-05-29T06:17:32.360Z,1011.31
2019-05-29T06:18:32.407Z,1011.28
2019-05-29T06:19:32.763Z,1011.28
2019-05-29T06:20:32.663Z,1011.34
2019-05-29T06:21:32.548Z,1011.29
2019-05-29T06:22:32.883Z,1011.27
2019-05-29T06:23:32.791Z,1011.27
2019-05-29T06:24:33.446Z,1011.32
2019-05-29T06:25:33.870Z,1011.32
2019-05-29T06:26:32.802Z,1011.38
2019-05-29T06:27:33.624Z,1011.43
2019-05-29T06:28:33.008Z,1011.47
2019-05-29T06:29:33.414Z,1011.40
2019-05-29T06:30:33.888Z,1011.50
2019-05-29T06:31:33.219Z,1011.44
2019-05-29T06:32:33.347Z,1011.45
2019-05-29T06:33:33.319Z,1011.46
2019-05-29T06:34:31.832Z,1011.45
2019-05-29T06:35:31.819Z,1011.46
2019-05-29T06:36:31.829Z,1011.46
2019-05-29T06:37:31.819Z,1011.48
2019-05-29T06:38:31.791Z,1011.54
2019-05-29T06:39:31.780Z,1011.52
2019-05-29T06:40:31.762Z,1011.54
2019-05-29T06:41:31.788Z,1011.55
2019-05-29T06:42:31.749Z,1011.57
2019-05-29T06:43:31.747Z,1011.65
2019-05-29T06:44:31.899Z,1011.62
2019-05-29T06:45:31.719Z,1011.68
2019-05-29T06:46:31.728Z,1011.69
2019-05-29T06:47:31.694Z,1011.63
2019-05-29T06:48:42.912Z,1011.59
2019-05-29T06:49:33.837Z,1011.66
2019-05-29T06:50:31.712Z,1011.66
2019-05-29T06:51:31.672Z,1011.67
2019-05-29T06:52:31.644Z,1011.73
2019-05-29T06:53:31.637Z,1011.76
2019-05-29T06:54:31.623Z,1011.80
2019-05-29T06:55:31.611Z,1011.80
2019-05-29T06:56:31.616Z,1011.77
2019-05-29T06:57:31.595Z,1011.80
2019-05-29T06:58:31.572Z,1011.82
2019-05-29T06:59:31.567Z,1011.80
2019-05-29T07:00:35.422Z,1011.79
2019-05-29T07:01:31.573Z,1011.87
2019-05-29T07:02:31.963Z,1011.88
2019-05-29T07:03:31.528Z,1011.87
2019-05-29T07:04:31.522Z,1011.90
2019-05-29T07:05:31.508Z,1011.92
2019-05-29T07:06:31.508Z,1011.92
2019-05-29T07:07:31.486Z,1011.92
2019-05-29T07:08:38.662Z,1011.97
2019-05-29T07:09:32.467Z,1011.98
2019-05-29T07:10:31.459Z,1012.07
2019-05-29T07:11:31.452Z,1012.08
2019-05-29T07:12:31.431Z,1012.14
2019-05-29T07:13:35.000Z,1012.15
2019-05-29T07:14:31.410Z,1012.12
2019-05-29T07:15:31.395Z,1012.14
2019-05-29T07:16:44.017Z,1012.15
2019-05-29T07:17:32.387Z,1012.15
2019-05-29T07:18:31.360Z,1011.98
2019-05-29T07:19:47.546Z,1011.94
2019-05-29T07:20:32.339Z,1011.99
2019-05-29T07:21:31.345Z,1012.00
2019-05-29T07:22:31.329Z,1012.01
2019-05-29T07:23:31.321Z,1012.22
2019-05-29T07:24:31.304Z,1012.02
2019-05-29T07:25:31.293Z,1012.08
2019-05-29T07:26:31.332Z,1012.17
2019-05-29T07:27:31.266Z,1012.31
2019-05-29T07:28:31.268Z,1012.31
2019-05-29T07:29:31.250Z,1012.08
2019-05-29T07:30:31.238Z,1012.29
2019-05-29T07:31:31.247Z,1012.42
2019-05-29T07:32:31.217Z,1012.29
2019-05-29T07:33:31.215Z,1012.10
2019-05-29T07:34:47.388Z,1012.31
2019-05-29T07:35:32.189Z,1012.42
2019-05-29T07:36:31.196Z,1012.37
2019-05-29T07:37:31.168Z,1012.44
2019-05-29T07:38:31.160Z,1012.54
2019-05-29T07:39:31.154Z,1012.47
2019-05-29T07:40:35.589Z,1012.45
2019-05-29T07:41:31.138Z,1012.52
2019-05-29T07:42:31.119Z,1012.44
2019-05-29T07:43:31.102Z,1012.51
2019-05-29T07:44:31.088Z,1012.54
2019-05-29T07:45:31.079Z,1012.42
2019-05-29T07:46:31.116Z,1012.29
2019-05-29T07:47:31.057Z,1012.57
2019-05-29T07:48:31.076Z,1012.29
2019-05-29T07:49:39.276Z,1012.34
2019-05-29T07:50:32.027Z,1012.66
2019-05-29T07:51:31.033Z,1012.40
2019-05-29T07:52:31.009Z,1012.37
2019-05-29T07:53:33.715Z,1012.33
2019-05-29T07:54:30.994Z,1012.39
2019-05-29T07:55:30.981Z,1012.40
2019-05-29T07:56:30.975Z,1012.49
2019-05-29T07:57:30.954Z,1012.78
2019-05-29T07:58:30.956Z,1012.44
2019-05-29T07:59:30.941Z,1012.47
2019-05-29T08:00:35.615Z,1012.55
2019-05-29T08:01:31.929Z,1012.46
2019-05-29T08:02:30.916Z,1012.49
2019-05-29T08:03:30.898Z,1012.68
2019-05-29T08:04:30.885Z,1012.73
2019-05-29T08:05:30.878Z,1012.53
2019-05-29T08:06:30.889Z,1012.77
2019-05-29T08:07:30.857Z,1012.82
2019-05-29T08:08:30.860Z,1012.80
2019-05-29T08:09:30.839Z,1012.78
2019-05-29T08:10:30.818Z,1012.55
2019-05-29T08:11:30.823Z,1012.52
2019-05-29T08:12:30.799Z,1012.86
2019-05-29T08:13:30.798Z,1012.85
2019-05-29T08:14:30.777Z,1012.54
2019-05-29T08:15:30.765Z,1012.59
2019-05-29T08:16:30.775Z,1012.61
2019-05-29T08:17:30.742Z,1012.63
2019-05-29T08:18:30.739Z,1012.65
2019-05-29T08:19:30.723Z,1012.88
2019-05-29T08:20:30.715Z,1012.62
2019-05-29T08:21:30.716Z,1012.68
2019-05-29T08:22:34.623Z,1013.01
2019-05-29T08:23:30.683Z,1013.04
2019-05-29T08:24:30.673Z,1013.06
2019-05-29T08:25:30.665Z,1013.08
2019-05-29T08:26:30.684Z,1013.14
2019-05-29T08:27:30.641Z,1013.14
2019-05-29T08:28:30.630Z,1013.18
2019-05-29T08:29:30.656Z,1013.15
2019-05-29T08:30:30.613Z,1012.94
2019-05-29T08:31:30.613Z,1012.96
2019-05-29T08:32:30.594Z,1012.84
2019-05-29T08:33:30.622Z,1012.83
2019-05-29T08:34:30.575Z,1012.77
2019-05-29T08:35:30.565Z,1012.79
2019-05-29T08:36:30.569Z,1012.73
2019-05-29T08:37:30.539Z,1013.06
2019-05-29T08:38:30.543Z,1012.77
2019-05-29T08:39:36.226Z,1013.24
2019-05-29T08:40:31.507Z,1013.25
2019-05-29T08:41:30.526Z,1013.27
2019-05-29T08:42:30.492Z,1013.29
2019-05-29T08:43:30.479Z,1013.34
2019-05-29T08:44:30.464Z,1012.93
2019-05-29T08:45:30.460Z,1012.91
2019-05-29T08:46:33.312Z,1012.92
2019-05-29T08:47:30.438Z,1012.87
2019-05-29T08:48:30.424Z,1013.34
2019-05-29T08:49:30.415Z,1013.44
2019-05-29T08:50:30.422Z,1013.43
2019-05-29T08:51:30.415Z,1013.43
2019-05-29T08:52:30.395Z,1013.49
2019-05-29T08:53:30.382Z,1013.53
2019-05-29T08:54:30.366Z,1013.53
2019-05-29T08:55:30.357Z,1013.58
2019-05-29T08:56:30.382Z,1013.59
2019-05-29T08:57:30.340Z,1013.58
2019-05-29T08:58:30.335Z,1013.59
2019-05-29T08:59:30.328Z,1013.60
2019-05-29T09:00:30.306Z,1013.58
2019-05-29T09:01:30.310Z,1013.60
2019-05-29T09:02:30.293Z,1013.61
2019-05-29T09:03:30.296Z,1013.57
2019-05-29T09:04:30.273Z,1013.70
2019-05-29T09:05:30.261Z,1013.48
2019-05-29T09:06:30.267Z,1013.19
2019-05-29T09:07:30.245Z,1013.13
2019-05-29T09:08:30.252Z,1013.13
2019-05-29T09:09:30.247Z,1013.13
2019-05-29T09:10:30.220Z,1013.17
2019-05-29T09:11:30.216Z,1013.10
2019-05-29T09:12:30.273Z,1013.16
2019-05-29T09:13:30.182Z,1013.35
2019-05-29T09:14:30.173Z,1013.64
2019-05-29T09:15:30.157Z,1013.58
2019-05-29T09:16:30.206Z,1013.25
2019-05-29T09:17:30.148Z,1013.16
2019-05-29T09:18:30.135Z,1013.20
2019-05-29T09:19:30.118Z,1013.26
2019-05-29T09:20:50.122Z,1013.15
2019-05-29T09:21:31.123Z,1013.12
2019-05-29T09:22:30.096Z,1013.15
2019-05-29T09:23:30.081Z,1013.18
2019-05-29T09:24:30.076Z,1013.29
2019-05-29T09:25:30.066Z,1013.60
2019-05-29T09:26:30.053Z,1013.67
2019-05-29T09:27:30.059Z,1013.69
2019-05-29T09:28:30.032Z,1013.77
2019-05-29T09:29:30.027Z,1013.77
2019-05-29T09:30:30.020Z,1013.72
2019-05-29T09:31:30.015Z,1013.84
2019-05-29T09:32:48.411Z,1013.88
2019-05-29T09:33:30.981Z,1013.95
2019-05-29T09:34:29.973Z,1014.01
2019-05-29T09:35:29.963Z,1013.95
2019-05-29T09:36:29.953Z,1013.32
2019-05-29T09:37:29.955Z,1013.34
2019-05-29T09:38:29.932Z,1013.30
2019-05-29T09:39:29.921Z,1013.94
2019-05-29T09:40:29.915Z,1013.92
2019-05-29T09:41:29.909Z,1013.98
2019-05-29T09:42:29.913Z,1014.01
2019-05-29T09:43:30.779Z,1014.03
2019-05-29T09:44:38.408Z,1014.09
2019-05-29T09:45:30.966Z,1014.16
2019-05-29T09:46:29.855Z,1014.17
2019-05-29T09:47:29.855Z,1014.14
2019-05-29T09:48:29.839Z,1013.78
2019-05-29T09:49:29.830Z,1013.50
2019-05-29T09:50:48.795Z,1013.52
2019-05-29T09:51:30.807Z,1013.46
2019-05-29T09:52:30.830Z,1013.43
2019-05-29T09:53:29.798Z,1013.38
2019-05-29T09:54:29.925Z,1014.03
2019-05-29T09:55:29.774Z,1014.08
2019-05-29T09:56:29.763Z,1014.21
2019-05-29T09:57:29.762Z,1014.35
2019-05-29T09:58:29.742Z,1014.42
2019-05-29T09:59:29.738Z,1014.35
2019-05-29T10:00:29.723Z,1014.37
2019-05-29T10:01:29.713Z,1013.82
2019-05-29T10:02:29.723Z,1013.77
2019-05-29T10:03:29.694Z,1013.93
2019-05-29T10:04:29.680Z,1013.75
2019-05-29T10:05:29.672Z,1013.63
2019-05-29T10:06:29.663Z,1013.60
2019-05-29T10:07:29.669Z,1013.66
2019-05-29T10:08:29.643Z,1013.68
2019-05-29T10:09:29.631Z,1013.65
2019-05-29T10:10:29.627Z,1013.56
2019-05-29T10:11:29.615Z,1013.65
2019-05-29T10:12:29.617Z,1014.42
2019-05-29T10:13:29.596Z,1013.69
2019-05-29T10:14:29.584Z,1014.17
2019-05-29T10:15:29.573Z,1014.51
2019-05-29T10:16:29.576Z,1014.53
2019-05-29T10:17:29.568Z,1014.69
2019-05-29T10:18:32.447Z,1014.70
2019-05-29T10:19:29.535Z,1014.63
2019-05-29T10:20:29.525Z,1014.64
2019-05-29T10:21:40.353Z,1014.70
2019-05-29T10:22:30.523Z,1014.74
2019-05-29T10:23:29.498Z,1014.82
2019-05-29T10:24:32.307Z,1014.87
2019-05-29T10:25:29.480Z,1014.87
2019-05-29T10:26:29.479Z,1014.94
2019-05-29T10:27:29.479Z,1014.46
2019-05-29T10:28:48.432Z,1013.94
2019-05-29T10:29:30.446Z,1014.55
2019-05-29T10:30:29.436Z,1014.74
2019-05-29T10:31:29.436Z,1013.85
2019-05-29T10:32:29.432Z,1013.77
2019-05-29T10:33:29.408Z,1014.47
2019-05-29T10:34:29.405Z,1014.62
2019-05-29T10:35:29.389Z,1014.65
2019-05-29T10:36:29.393Z,1014.70
2019-05-29T10:37:29.387Z,1014.72
2019-05-29T10:38:29.362Z,1014.77
2019-05-29T10:39:29.355Z,1014.91
2019-05-29T10:40:29.348Z,1014.76
2019-05-29T10:41:29.336Z,1014.26
2019-05-29T10:42:29.342Z,1014.00
2019-05-29T10:43:34.345Z,1013.92
2019-05-29T10:44:30.310Z,1013.95
2019-05-29T10:45:29.298Z,1014.82
2019-05-29T10:46:29.293Z,1014.90
2019-05-29T10:47:29.293Z,1014.93
2019-05-29T10:48:29.276Z,1014.99
2019-05-29T10:49:29.259Z,1015.02
2019-05-29T10:50:29.251Z,1015.07
2019-05-29T10:51:29.242Z,1015.06
2019-05-29T10:52:29.250Z,1015.10
2019-05-29T10:53:29.234Z,1015.15
2019-05-29T10:54:29.216Z,1015.17
2019-05-29T10:55:29.210Z,1015.15
2019-05-29T10:56:29.204Z,1015.22
2019-05-29T10:57:29.210Z,1015.30
2019-05-29T10:58:29.182Z,1014.75
2019-05-29T10:59:29.182Z,1015.11
2019-05-29T11:00:29.169Z,1015.15
2019-05-29T11:01:29.164Z,1015.16
2019-05-29T11:02:29.165Z,1015.21
2019-05-29T11:03:29.143Z,1015.16
2019-05-29T11:04:29.137Z,1015.21
2019-05-29T11:05:29.136Z,1015.18
2019-05-29T11:06:29.114Z,1015.24
2019-05-29T11:07:29.121Z,1015.27
2019-05-29T11:08:29.114Z,1014.86
2019-05-29T11:09:43.295Z,1014.34
2019-05-29T11:10:30.085Z,1014.36
2019-05-29T11:11:29.085Z,1015.01
2019-05-29T11:12:29.083Z,1015.04
2019-05-29T11:13:29.068Z,1014.80
2019-05-29T11:14:29.092Z,1014.61
2019-05-29T11:15:29.039Z,1014.30
2019-05-29T11:16:29.040Z,1014.08
2019-05-29T11:17:29.055Z,1014.78
2019-05-29T11:18:29.015Z,1015.06
2019-05-29T11:19:29.190Z,1014.42
2019-05-29T11:20:28.994Z,1014.05
2019-05-29T11:21:29.054Z,1014.41
2019-05-29T11:22:28.995Z,1014.62
2019-05-29T11:23:28.968Z,1014.95
2019-05-29T11:24:28.975Z,1015.13
2019-05-29T11:25:28.961Z,1015.16
2019-05-29T11:26:28.940Z,1015.18
2019-05-29T11:27:28.949Z,1015.21
2019-05-29T11:28:28.932Z,1015.26
2019-05-29T11:29:28.933Z,1015.22
2019-05-29T11:30:29.120Z,1015.23
2019-05-29T11:31:28.900Z,1015.29
2019-05-29T11:32:28.946Z,1015.25
2019-05-29T11:33:28.889Z,1015.19
2019-05-29T11:34:28.875Z,1015.23
2019-05-29T11:35:28.869Z,1015.25
2019-05-29T11:36:28.860Z,1015.15
2019-05-29T11:37:28.862Z,1015.23
2019-05-29T11:38:28.862Z,1015.26
2019-05-29T11:39:28.832Z,1015.24
2019-05-29T11:40:29.043Z,1015.23
2019-05-29T11:41:28.817Z,1015.29
2019-05-29T11:42:28.821Z,1015.26
2019-05-29T11:43:28.801Z,1015.22
2019-05-29T11:44:28.798Z,1015.22
2019-05-29T11:45:28.852Z,1015.25
2019-05-29T11:46:28.783Z,1015.31
2019-05-29T11:47:28.788Z,1015.23
2019-05-29T11:48:28.769Z,1015.29
2019-05-29T11:49:28.758Z,1015.24
2019-05-29T11:50:28.751Z,1015.19
2019-05-29T11:51:28.744Z,1015.30
2019-05-29T11:52:39.814Z,1015.19
2019-05-29T11:53:29.722Z,1015.27
2019-05-29T11:54:28.725Z,1015.19
2019-05-29T11:55:28.710Z,1015.14
2019-05-29T11:56:28.703Z,1015.19
2019-05-29T11:57:28.705Z,1015.24
2019-05-29T11:58:31.570Z,1015.20
2019-05-29T11:59:28.693Z,1015.18
2019-05-29T12:00:28.674Z,1015.19
2019-05-29T12:01:28.660Z,1015.17
2019-05-29T12:02:28.671Z,1015.21
2019-05-29T12:03:28.650Z,1015.03
2019-05-29T12:04:28.643Z,1015.21
2019-05-29T12:05:28.640Z,1015.26